createdAt,value
2023-01-03T00:00:31.742Z,98327.38
2023-01-03T00:02:34.489Z,98343.81
2023-01-03T00:04:37.205Z,98332.75
2023-01-03T00:06:47.209Z,98325.22
2023-01-03T00:08:50.669Z,98317.41
2023-01-03T00:10:53.270Z,98319.00
2023-01-03T00:12:57.725Z,98320.63
2023-01-03T00:15:00.463Z,98332.75
2023-01-03T00:17:05.295Z,98350.81
2023-01-03T00:19:13.202Z,98334.63
2023-01-03T00:21:15.944Z,98340.84
2023-01-03T00:23:18.536Z,98343.81
2023-01-03T00:25:21.234Z,98340.03
2023-01-03T00:27:23.957Z,98347.84
2023-01-03T00:29:26.749Z,98346.25
2023-01-03T00:31:29.503Z,98347.31
2023-01-03T00:33:32.709Z,98353.50
2023-01-03T00:35:35.304Z,98366.72
2023-01-03T00:37:38.011Z,98345.41
2023-01-03T00:39:41.303Z,98357.81
2023-01-03T00:41:44.022Z,98373.19
2023-01-03T00:43:48.102Z,98351.91
2023-01-03T00:45:50.735Z,98359.72
2023-01-03T00:47:53.371Z,98365.94
2023-01-03T00:49:55.978Z,98362.94
2023-01-03T00:51:58.772Z,98361.88
2023-01-03T00:54:03.542Z,98365.38
2023-01-03T00:56:09.588Z,98369.41
2023-01-03T00:58:12.356Z,98368.31
2023-01-03T01:00:15.333Z,98372.66
2023-01-03T01:02:20.685Z,98376.16
2023-01-03T01:04:26.515Z,98366.72
2023-01-03T01:06:31.574Z,98381.56
2023-01-03T01:08:34.227Z,98375.63
2023-01-03T01:10:36.907Z,98377.53
2023-01-03T01:12:39.534Z,98392.34
2023-01-03T01:14:42.206Z,98386.13
2023-01-03T01:16:44.874Z,98386.13
2023-01-03T01:18:49.332Z,98379.41
2023-01-03T01:20:53.065Z,98394.50
2023-01-03T01:22:55.696Z,98375.09
2023-01-03T01:24:58.294Z,98369.97
2023-01-03T01:27:01.039Z,98384.50
2023-01-03T01:29:04.136Z,98383.97
2023-01-03T01:31:07.795Z,98405.28
2023-01-03T01:33:10.466Z,98383.72
2023-01-03T01:35:13.118Z,98389.63
2023-01-03T01:37:15.780Z,98398.53
2023-01-03T01:39:26.562Z,98401.75
2023-01-03T01:41:50.427Z,98390.44
2023-01-03T01:44:16.601Z,98391.53
2023-01-03T01:46:24.962Z,98388.53
2023-01-03T01:48:27.880Z,98390.97
2023-01-03T01:50:45.874Z,98405.00
2023-01-03T01:53:12.472Z,98402.56
2023-01-03T01:55:20.693Z,98397.72
2023-01-03T01:57:25.960Z,98393.66
2023-01-03T01:59:28.733Z,98395.28
2023-01-03T02:01:31.780Z,98399.88
2023-01-03T02:03:34.883Z,98393.94
2023-01-03T02:05:48.768Z,98407.94
2023-01-03T02:07:53.027Z,98399.06
2023-01-03T02:09:57.793Z,98402.31
2023-01-03T02:12:57.856Z,98408.25
2023-01-03T02:15:28.026Z,98416.59
2023-01-03T02:17:52.674Z,98418.22
2023-01-03T02:20:10.173Z,98410.69
2023-01-03T02:22:18.817Z,98407.97
2023-01-03T02:24:43.332Z,98408.81
2023-01-03T02:27:04.281Z,98417.97
2023-01-03T02:29:29.204Z,98427.13
2023-01-03T02:32:01.387Z,98424.72
2023-01-03T02:34:12.656Z,98427.66
2023-01-03T02:36:24.999Z,98431.19
2023-01-03T02:38:36.298Z,98437.91
2023-01-03T02:40:49.894Z,98443.28
2023-01-03T02:43:02.247Z,98433.06
2023-01-03T02:45:11.913Z,98424.44
2023-01-03T02:47:16.164Z,98436.28
2023-01-03T02:49:24.904Z,98434.41
2023-01-03T02:51:55.882Z,98443.31
2023-01-03T02:54:00.293Z,98442.50
2023-01-03T02:56:09.776Z,98444.91
2023-01-03T02:58:23.622Z,98448.16
2023-01-03T03:00:29.860Z,98417.44
2023-01-03T03:02:36.359Z,98437.63
2023-01-03T03:04:40.828Z,98439.25
2023-01-03T03:07:11.585Z,98428.75
2023-01-03T03:09:14.261Z,98433.59
2023-01-03T03:11:35.785Z,98429.81
2023-01-03T03:13:47.060Z,98427.16
2023-01-03T03:16:00.751Z,98428.50
2023-01-03T03:18:13.511Z,98441.97
2023-01-03T03:20:36.221Z,98433.88
2023-01-03T03:23:00.327Z,98443.03
2023-01-03T03:25:08.165Z,98446.81
2023-01-03T03:27:47.773Z,98448.41
2023-01-03T03:29:53.537Z,98450.56
2023-01-03T03:31:57.198Z,98447.06
2023-01-03T03:33:59.728Z,98443.84
2023-01-03T03:36:08.780Z,98444.91
2023-01-03T03:38:16.435Z,98464.59
2023-01-03T03:40:38.111Z,98441.69
2023-01-03T03:43:14.974Z,98475.09
2023-01-03T03:45:37.505Z,98465.38
2023-01-03T03:48:01.274Z,98448.69
2023-01-03T03:50:14.201Z,98448.69
2023-01-03T03:52:21.357Z,98458.13
2023-01-03T03:54:26.495Z,98460.25
2023-01-03T03:56:32.888Z,98459.75
2023-01-03T03:59:05.561Z,98458.66
2023-01-03T04:01:11.760Z,98468.88
2023-01-03T04:03:16.199Z,98470.53
2023-01-03T04:05:23.433Z,98472.94
2023-01-03T04:07:26.357Z,98470.22
2023-01-03T04:09:29.070Z,98473.75
2023-01-03T04:11:31.792Z,98473.75
2023-01-03T04:13:36.729Z,98475.38
2023-01-03T04:15:39.411Z,98484.25
2023-01-03T04:17:42.463Z,98477.53
2023-01-03T04:19:45.127Z,98481.56
2023-01-03T04:21:47.764Z,98483.19
2023-01-03T04:23:50.529Z,98481.56
2023-01-03T04:25:53.234Z,98482.09
2023-01-03T04:27:55.909Z,98487.50
2023-01-03T04:29:58.565Z,98494.47
2023-01-03T04:32:01.304Z,98493.13
2023-01-03T04:34:04.014Z,98503.66
2023-01-03T04:36:06.944Z,98507.97
2023-01-03T04:38:09.603Z,98508.50
2023-01-03T04:40:12.391Z,98509.31
2023-01-03T04:42:33.794Z,98516.59
2023-01-03T04:44:36.377Z,98499.06
2023-01-03T04:46:44.075Z,98510.94
2023-01-03T04:48:49.071Z,98492.59
2023-01-03T04:50:57.227Z,98498.28
2023-01-03T04:53:00.169Z,98482.09
2023-01-03T04:55:02.798Z,98504.19
2023-01-03T04:57:06.226Z,98506.06
2023-01-03T04:59:08.937Z,98479.41
2023-01-03T05:01:11.664Z,98492.34
2023-01-03T05:03:14.601Z,98489.09
2023-01-03T05:05:17.373Z,98496.38
2023-01-03T05:07:19.934Z,98502.03
2023-01-03T05:09:23.305Z,98496.63
2023-01-03T05:11:26.105Z,98500.97
2023-01-03T05:13:28.800Z,98528.44
2023-01-03T05:15:35.034Z,98521.44
2023-01-03T05:17:37.750Z,98506.91
2023-01-03T05:20:00.436Z,98523.31
2023-01-03T05:22:21.705Z,98511.19
2023-01-03T05:24:42.718Z,98525.72
2023-01-03T05:26:46.147Z,98531.66
2023-01-03T05:28:53.550Z,98526.25
2023-01-03T05:31:01.203Z,98520.06
2023-01-03T05:33:03.895Z,98540.00
2023-01-03T05:35:06.852Z,98542.69
2023-01-03T05:37:09.831Z,98549.44
2023-01-03T05:39:12.823Z,98541.38
2023-01-03T05:41:35.943Z,98538.69
2023-01-03T05:43:38.700Z,98541.38
2023-01-03T05:45:41.490Z,98549.44
2023-01-03T05:47:44.171Z,98554.28
2023-01-03T05:49:46.832Z,98553.75
2023-01-03T05:51:49.862Z,98547.00
2023-01-03T05:53:52.849Z,98543.78
2023-01-03T05:55:55.584Z,98548.34
2023-01-03T05:57:58.202Z,98568.81
2023-01-03T06:00:00.896Z,98560.72
2023-01-03T06:02:03.773Z,98549.16
2023-01-03T06:04:07.291Z,98543.75
2023-01-03T06:06:10.081Z,98555.59
2023-01-03T06:08:12.721Z,98572.84
2023-01-03T06:10:15.484Z,98556.97
2023-01-03T06:12:18.092Z,98557.53
2023-01-03T06:14:20.940Z,98563.19
2023-01-03T06:16:42.330Z,98546.75
2023-01-03T06:18:45.064Z,98552.41
2023-01-03T06:20:47.681Z,98563.97
2023-01-03T06:22:50.277Z,98555.34
2023-01-03T06:24:53.223Z,98553.50
2023-01-03T06:26:56.026Z,98542.72
2023-01-03T06:28:59.460Z,98557.00
2023-01-03T06:31:04.109Z,98551.31
2023-01-03T06:33:06.877Z,98561.84
2023-01-03T06:35:09.840Z,98578.81
2023-01-03T06:37:12.475Z,98567.22
2023-01-03T06:39:15.098Z,98545.13
2023-01-03T06:41:17.905Z,98544.06
2023-01-03T06:43:20.592Z,98551.06
2023-01-03T06:45:41.857Z,98547.31
2023-01-03T06:48:02.916Z,98549.75
2023-01-03T06:50:24.386Z,98553.50
2023-01-03T06:52:45.445Z,98548.41
2023-01-03T06:54:48.371Z,98560.53
2023-01-03T06:56:51.980Z,98543.00
2023-01-03T06:58:54.876Z,98543.56
2023-01-03T07:01:00.325Z,98539.78
2023-01-03T07:03:08.866Z,98550.31
2023-01-03T07:05:14.152Z,98548.16
2023-01-03T07:07:16.769Z,98557.59
2023-01-03T07:09:19.442Z,98567.00
2023-01-03T07:11:25.198Z,98566.22
2023-01-03T07:13:46.519Z,98569.97
2023-01-03T07:15:49.116Z,98585.63
2023-01-03T07:17:51.850Z,98592.63
2023-01-03T07:19:54.526Z,98582.38
2023-01-03T07:21:57.169Z,98587.22
2023-01-03T07:24:04.402Z,98593.16
2023-01-03T07:26:07.303Z,98589.13
2023-01-03T07:28:12.233Z,98597.75
2023-01-03T07:30:15.051Z,98585.88
2023-01-03T07:32:17.643Z,98586.44
2023-01-03T07:34:20.239Z,98604.75
2023-01-03T07:36:23.028Z,98591.56
2023-01-03T07:38:25.660Z,98607.75
2023-01-03T07:40:28.704Z,98614.47
2023-01-03T07:42:49.704Z,98600.19
2023-01-03T07:44:52.273Z,98593.72
2023-01-03T07:46:55.039Z,98610.44
2023-01-03T07:49:05.055Z,98611.53
2023-01-03T07:51:12.538Z,98609.38
2023-01-03T07:53:17.183Z,98613.13
2023-01-03T07:55:19.902Z,98609.38
2023-01-03T07:57:22.497Z,98589.41
2023-01-03T07:59:25.117Z,98599.13
2023-01-03T08:01:30.259Z,98583.75
2023-01-03T08:03:33.545Z,98601.81
2023-01-03T08:05:36.580Z,98590.22
2023-01-03T08:07:39.222Z,98593.72
2023-01-03T08:10:00.509Z,98581.56
2023-01-03T08:12:22.014Z,98596.41
2023-01-03T08:14:26.510Z,98599.91
2023-01-03T08:16:30.012Z,98589.94
2023-01-03T08:18:32.672Z,98587.78
2023-01-03T08:20:35.337Z,98608.00
2023-01-03T08:22:37.915Z,98592.63
2023-01-03T08:24:40.576Z,98589.41
2023-01-03T08:26:43.253Z,98583.72
2023-01-03T08:28:46.415Z,98595.59
2023-01-03T08:30:50.143Z,98589.94
2023-01-03T08:32:55.381Z,98586.44
2023-01-03T08:34:58.516Z,98598.56
2023-01-03T08:37:07.373Z,98568.38
2023-01-03T08:39:13.710Z,98561.63
2023-01-03T08:41:20.959Z,98585.88
2023-01-03T08:43:23.997Z,98579.41
2023-01-03T08:45:27.629Z,98595.56
2023-01-03T08:47:30.964Z,98592.88
2023-01-03T08:49:33.661Z,98597.22
2023-01-03T08:51:36.345Z,98612.31
2023-01-03T08:53:40.264Z,98609.59
2023-01-03T08:55:43.056Z,98617.69
2023-01-03T08:57:45.914Z,98601.00
2023-01-03T08:59:48.996Z,98606.41
2023-01-03T09:01:51.875Z,98610.16
2023-01-03T09:03:54.898Z,98608.00
2023-01-03T09:06:02.036Z,98608.25
2023-01-03T09:08:05.342Z,98622.28
2023-01-03T09:10:08.782Z,98617.13
2023-01-03T09:12:11.479Z,98629.56
2023-01-03T09:14:14.751Z,98648.69
2023-01-03T09:16:17.731Z,98624.16
2023-01-03T09:18:20.438Z,98613.94
2023-01-03T09:20:23.501Z,98620.69
2023-01-03T09:22:26.588Z,98607.19
2023-01-03T09:24:29.412Z,98609.09
2023-01-03T09:26:32.201Z,98613.09
2023-01-03T09:28:35.347Z,98613.66
2023-01-03T09:30:38.155Z,98602.84
2023-01-03T09:32:41.183Z,98599.63
2023-01-03T09:34:44.319Z,98595.03
2023-01-03T09:36:47.267Z,98579.41
2023-01-03T09:38:50.370Z,98581.78
2023-01-03T09:41:03.220Z,98581.53
2023-01-03T09:43:21.502Z,98584.50
2023-01-03T09:45:34.582Z,98582.84
2023-01-03T09:47:39.429Z,98573.69
2023-01-03T09:50:04.614Z,98578.00
2023-01-03T09:52:24.695Z,98574.75
2023-01-03T09:54:57.777Z,98565.06
2023-01-03T09:57:23.152Z,98582.84
2023-01-03T09:59:56.181Z,98582.84
2023-01-03T10:02:54.470Z,98587.47
2023-01-03T10:05:24.831Z,98582.91
2023-01-03T10:07:42.241Z,98575.91
2023-01-03T10:10:12.312Z,98576.97
2023-01-03T10:12:35.430Z,98573.19
2023-01-03T10:14:56.175Z,98561.88
2023-01-03T10:17:16.691Z,98568.38
2023-01-03T10:19:56.248Z,98566.72
2023-01-03T10:22:09.226Z,98560.25
2023-01-03T10:24:22.482Z,98569.69
2023-01-03T10:26:33.315Z,98559.19
2023-01-03T10:28:42.336Z,98555.16
2023-01-03T10:30:58.342Z,98558.63
2023-01-03T10:33:15.651Z,98561.88
2023-01-03T10:35:25.293Z,98552.72
2023-01-03T10:37:28.361Z,98558.63
2023-01-03T10:39:32.317Z,98564.03
2023-01-03T10:41:52.892Z,98560.53
2023-01-03T10:44:00.899Z,98564.84
2023-01-03T10:46:23.015Z,98573.47
2023-01-03T10:48:59.928Z,98577.50
2023-01-03T10:51:05.448Z,98565.63
2023-01-03T10:53:11.520Z,98568.88
2023-01-03T10:55:19.146Z,98561.06
2023-01-03T10:57:39.452Z,98560.25
2023-01-03T10:59:49.497Z,98546.25
2023-01-03T11:02:15.426Z,98553.25
2023-01-03T11:04:20.050Z,98540.56
2023-01-03T11:06:22.697Z,98545.41
2023-01-03T11:08:44.498Z,98551.66
2023-01-03T11:10:54.549Z,98550.00
2023-01-03T11:12:58.711Z,98541.94
2023-01-03T11:15:04.967Z,98551.09
2023-01-03T11:17:13.088Z,98566.72
2023-01-03T11:19:18.898Z,98560.53
2023-01-03T11:21:30.489Z,98553.25
2023-01-03T11:24:02.741Z,98548.41
2023-01-03T11:26:20.776Z,98544.63
2023-01-03T11:28:46.183Z,98547.88
2023-01-03T11:31:25.126Z,98542.72
2023-01-03T11:33:56.643Z,98535.72
2023-01-03T11:36:07.396Z,98536.28
2023-01-03T11:38:25.226Z,98542.75
2023-01-03T11:40:44.927Z,98534.94
2023-01-03T11:43:16.104Z,98527.94
2023-01-03T11:45:34.782Z,98530.88
2023-01-03T11:47:58.989Z,98523.88
2023-01-03T11:50:15.603Z,98517.97
2023-01-03T11:52:50.136Z,98512.56
2023-01-03T11:55:10.802Z,98514.47
2023-01-03T11:57:36.232Z,98509.31
2023-01-03T11:59:57.164Z,98512.03
2023-01-03T12:02:20.007Z,98505.84
2023-01-03T12:04:37.850Z,98498.81
2023-01-03T12:10:10.511Z,98491.81
2023-01-03T12:12:22.105Z,98496.66
2023-01-03T12:14:32.600Z,98489.13
2023-01-03T12:17:00.873Z,98488.56
2023-01-03T12:19:12.496Z,98497.19
2023-01-03T12:21:37.656Z,98488.03
2023-01-03T12:23:48.904Z,98502.31
2023-01-03T12:25:56.310Z,98497.19
2023-01-03T12:28:10.806Z,98487.47
2023-01-03T12:30:42.982Z,98493.16
2023-01-03T12:32:53.447Z,98494.50
2023-01-03T12:35:17.469Z,98485.06
2023-01-03T12:37:24.544Z,98495.84
2023-01-03T12:39:49.383Z,98490.19
2023-01-03T12:42:12.137Z,98489.09
2023-01-03T12:44:34.866Z,98502.06
2023-01-03T12:46:44.484Z,98493.97
2023-01-03T12:49:13.538Z,98497.19
2023-01-03T12:51:20.534Z,98494.47
2023-01-03T12:53:25.833Z,98501.22
2023-01-03T12:55:48.805Z,98492.34
2023-01-03T12:58:23.462Z,98493.13
2023-01-03T13:00:26.777Z,98499.63
2023-01-03T13:03:02.227Z,98491.78
2023-01-03T13:05:23.785Z,98485.06
2023-01-03T13:07:30.267Z,98479.13
2023-01-03T13:09:38.600Z,98477.22
2023-01-03T13:11:55.077Z,98470.78
2023-01-03T13:14:21.720Z,98468.63
2023-01-03T13:16:36.647Z,98480.75
2023-01-03T13:18:39.405Z,98478.88
2023-01-03T13:20:46.355Z,98467.03
2023-01-03T13:23:18.428Z,98474.03
2023-01-03T13:25:27.010Z,98484.25
2023-01-03T13:27:38.737Z,98496.66
2023-01-03T13:29:54.483Z,98489.09
2023-01-03T13:32:25.473Z,98482.09
2023-01-03T13:34:33.384Z,98474.81
2023-01-03T13:37:08.017Z,98472.13
2023-01-03T13:39:40.263Z,98470.25
2023-01-03T13:41:53.595Z,98462.16
2023-01-03T13:44:06.623Z,98471.84
2023-01-03T13:46:25.030Z,98469.97
2023-01-03T13:48:37.592Z,98467.53
2023-01-03T13:50:40.188Z,98471.03
2023-01-03T13:53:05.069Z,98467.81
2023-01-03T13:55:36.597Z,98470.25
2023-01-03T13:57:53.580Z,98474.28
2023-01-03T13:59:59.414Z,98467.00
2023-01-03T14:02:10.622Z,98467.53
2023-01-03T14:04:41.442Z,98471.03
2023-01-03T14:07:05.302Z,98457.56
2023-01-03T14:09:45.041Z,98452.72
2023-01-03T14:12:12.060Z,98455.13
2023-01-03T14:14:22.545Z,98460.53
2023-01-03T14:16:29.178Z,98449.22
2023-01-03T14:18:33.788Z,98448.16
2023-01-03T14:20:37.326Z,98439.25
2023-01-03T14:22:48.451Z,98447.88
2023-01-03T14:24:57.688Z,98442.47
2023-01-03T14:27:16.993Z,98440.31
2023-01-03T14:29:23.420Z,98442.75
2023-01-03T14:31:28.462Z,98434.69
2023-01-03T14:33:42.776Z,98431.19
2023-01-03T14:35:46.003Z,98421.22
2023-01-03T14:37:48.700Z,98426.06
2023-01-03T14:40:03.749Z,98430.91
2023-01-03T14:42:15.139Z,98410.97
2023-01-03T14:44:17.888Z,98410.44
2023-01-03T14:46:20.562Z,98409.63
2023-01-03T14:48:25.096Z,98410.44
2023-01-03T14:50:30.360Z,98399.66
2023-01-03T14:52:42.361Z,98395.63
2023-01-03T14:54:46.701Z,98388.91
2023-01-03T14:56:49.258Z,98375.94
2023-01-03T14:58:52.034Z,98368.41
2023-01-03T15:00:55.255Z,98372.19
2023-01-03T15:02:58.190Z,98357.91
2023-01-03T15:05:02.896Z,98360.59
2023-01-03T15:07:13.014Z,98355.50
2023-01-03T15:09:22.651Z,98345.25
2023-01-03T15:11:55.852Z,98344.72
2023-01-03T15:14:07.015Z,98342.03
2023-01-03T15:16:38.696Z,98341.22
2023-01-03T15:18:44.163Z,98345.25
2023-01-03T15:20:46.834Z,98348.47
2023-01-03T15:22:49.629Z,98350.91
2023-01-03T15:25:05.285Z,98351.72
2023-01-03T15:27:33.167Z,98342.28
2023-01-03T15:29:45.197Z,98341.22
2023-01-03T15:31:49.302Z,98328.03
2023-01-03T15:34:14.182Z,98325.31
2023-01-03T15:36:19.368Z,98327.50
2023-01-03T15:38:35.785Z,98328.84
2023-01-03T15:40:40.423Z,98322.91
2023-01-03T15:43:03.120Z,98318.34
2023-01-03T15:45:12.368Z,98304.63
2023-01-03T15:47:21.326Z,98303.00
2023-01-03T15:49:27.203Z,98296.00
2023-01-03T15:51:29.949Z,98299.75
2023-01-03T15:53:44.217Z,98289.81
2023-01-03T15:55:49.758Z,98286.31
2023-01-03T15:57:54.216Z,98281.19
2023-01-03T16:00:00.237Z,98274.47
2023-01-03T16:02:04.279Z,98265.31
2023-01-03T16:04:07.002Z,98260.75
2023-01-03T16:06:09.670Z,98258.84
2023-01-03T16:08:35.172Z,98260.75
2023-01-03T16:10:38.060Z,98258.59
2023-01-03T16:12:42.802Z,98252.66
2023-01-03T16:14:50.512Z,98251.88
2023-01-03T16:16:57.171Z,98245.16
2023-01-03T16:19:00.594Z,98240.81
2023-01-03T16:21:04.892Z,98231.69
2023-01-03T16:23:26.259Z,98221.19
2023-01-03T16:25:29.596Z,98223.88
2023-01-03T16:27:32.140Z,98235.19
2023-01-03T16:29:34.935Z,98227.38
2023-01-03T16:31:38.561Z,98223.34
2023-01-03T16:33:42.966Z,98233.56
2023-01-03T16:35:45.913Z,98233.03
2023-01-03T16:37:54.443Z,98227.91
2023-01-03T16:39:58.445Z,98217.69
2023-01-03T16:42:13.304Z,98203.44
2023-01-03T16:44:16.053Z,98200.75
2023-01-03T16:46:21.846Z,98186.75
2023-01-03T16:48:26.404Z,98200.19
2023-01-03T16:50:29.088Z,98202.09
2023-01-03T16:52:37.795Z,98194.81
2023-01-03T16:54:42.744Z,98196.44
2023-01-03T16:56:45.941Z,98192.94
2023-01-03T16:58:48.922Z,98184.59
2023-01-03T17:00:52.421Z,98172.25
2023-01-03T17:03:01.374Z,98174.63
2023-01-03T17:05:04.508Z,98169.25
2023-01-03T17:07:15.403Z,98159.31
2023-01-03T17:09:22.831Z,98148.81
2023-01-03T17:11:26.664Z,98135.34
2023-01-03T17:13:33.063Z,98133.22
2023-01-03T17:15:35.632Z,98124.34
2023-01-03T17:17:38.216Z,98122.97
2023-01-03T17:20:03.375Z,98118.94
2023-01-03T17:22:03.518Z,98118.94
2023-01-03T17:24:16.874Z,98112.78
2023-01-03T17:26:22.917Z,98117.06
2023-01-03T17:28:25.601Z,98117.63
2023-01-03T17:30:29.157Z,98116.56
2023-01-03T17:32:32.376Z,98126.22
2023-01-03T17:34:34.966Z,98125.41
2023-01-03T17:36:37.704Z,98125.16
2023-01-03T17:38:44.324Z,98117.09
2023-01-03T17:40:49.947Z,98111.41
2023-01-03T17:42:55.584Z,98120.03
2023-01-03T17:45:35.663Z,98113.31
2023-01-03T17:48:02.857Z,98100.41
2023-01-03T17:50:05.823Z,98095.28
2023-01-03T17:52:20.672Z,98107.13
2023-01-03T17:54:43.525Z,98119.78
2023-01-03T17:56:47.006Z,98120.84
2023-01-03T17:58:56.006Z,98115.75
2023-01-03T18:00:59.718Z,98128.91
2023-01-03T18:03:02.661Z,98120.84
2023-01-03T18:05:16.371Z,98111.97
2023-01-03T18:07:25.519Z,98104.97
2023-01-03T18:09:31.634Z,98113.06
2023-01-03T18:11:34.397Z,98118.94
2023-01-03T18:13:38.635Z,98125.16
2023-01-03T18:15:41.266Z,98119.50
2023-01-03T18:17:46.235Z,98124.88
2023-01-03T18:19:49.256Z,98123.81
2023-01-03T18:21:52.108Z,98126.78
2023-01-03T18:24:08.028Z,98110.63
2023-01-03T18:26:14.018Z,98107.94
2023-01-03T18:28:21.690Z,98096.38
2023-01-03T18:30:24.537Z,98093.97
2023-01-03T18:32:29.789Z,98087.47
2023-01-03T18:34:32.456Z,98094.75
2023-01-03T18:36:42.182Z,98105.50
2023-01-03T18:38:44.753Z,98102.03
2023-01-03T18:40:47.463Z,98090.72
2023-01-03T18:43:08.330Z,98081.84
2023-01-03T18:45:15.291Z,98077.03
2023-01-03T18:47:18.994Z,98068.41
2023-01-03T18:49:21.592Z,98065.97
2023-01-03T18:51:28.110Z,98081.06
2023-01-03T18:53:33.414Z,98074.59
2023-01-03T18:55:37.933Z,98068.44
2023-01-03T18:57:40.930Z,98070.81
2023-01-03T18:59:43.601Z,98069.75
2023-01-03T19:01:46.667Z,98058.19
2023-01-03T19:03:51.122Z,98052.81
2023-01-03T19:05:55.534Z,98041.25
2023-01-03T19:07:58.658Z,98044.75
2023-01-03T19:10:05.974Z,98032.63
2023-01-03T19:12:16.630Z,98028.09
2023-01-03T19:14:19.273Z,98031.59
2023-01-03T19:16:32.321Z,98023.53
2023-01-03T19:18:34.916Z,98031.59
2023-01-03T19:20:37.548Z,98036.47
2023-01-03T19:22:43.495Z,98027.31
2023-01-03T19:24:46.437Z,98020.34
2023-01-03T19:26:55.030Z,98006.34
2023-01-03T19:29:01.367Z,98008.50
2023-01-03T19:31:05.264Z,98016.03
2023-01-03T19:33:13.839Z,97997.22
2023-01-03T19:35:16.998Z,97991.03
2023-01-03T19:37:19.848Z,97982.13
2023-01-03T19:39:26.645Z,97979.75
2023-01-03T19:41:31.670Z,97971.69
2023-01-03T19:43:35.557Z,97976.53
2023-01-03T19:45:41.195Z,97966.31
2023-01-03T19:47:44.855Z,97955.03
2023-01-03T19:49:48.777Z,97963.91
2023-01-03T19:51:54.179Z,97957.97
2023-01-03T19:53:56.930Z,97950.19
2023-01-03T19:55:59.777Z,97952.38
2023-01-03T19:58:12.544Z,97938.91
2023-01-03T20:00:24.827Z,97937.84
2023-01-03T20:02:33.587Z,97928.44
2023-01-03T20:04:36.578Z,97926.81
2023-01-03T20:06:39.399Z,97918.22
2023-01-03T20:08:42.030Z,97906.16
2023-01-03T20:10:45.247Z,97906.97
2023-01-03T20:12:50.984Z,97902.13
2023-01-03T20:15:00.004Z,97896.75
2023-01-03T20:17:20.867Z,97895.41
2023-01-03T20:19:23.477Z,97885.22
2023-01-03T20:21:30.454Z,97874.47
2023-01-03T20:23:37.349Z,97873.16
2023-01-03T20:25:40.202Z,97856.47
2023-01-03T20:27:45.964Z,97858.34
2023-01-03T20:29:50.469Z,97859.72
2023-01-03T20:31:53.488Z,97851.91
2023-01-03T20:33:57.413Z,97847.63
2023-01-03T20:36:12.619Z,97845.19
2023-01-03T20:38:25.237Z,97833.13
2023-01-03T20:40:29.096Z,97838.50
2023-01-03T20:42:31.852Z,97831.22
2023-01-03T20:44:34.757Z,97835.03
2023-01-03T20:46:39.252Z,97829.66
2023-01-03T20:48:42.394Z,97822.09
2023-01-03T20:50:45.355Z,97819.41
2023-01-03T20:52:48.440Z,97816.75
2023-01-03T20:54:52.866Z,97809.22
2023-01-03T20:56:55.688Z,97819.44
2023-01-03T20:59:00.430Z,97822.16
2023-01-03T21:01:05.186Z,97809.25
2023-01-03T21:03:09.137Z,97814.38
2023-01-03T21:05:15.143Z,97810.34
2023-01-03T21:07:27.288Z,97804.16
2023-01-03T21:09:29.921Z,97802.81
2023-01-03T21:11:42.262Z,97804.97
2023-01-03T21:13:48.808Z,97796.66
2023-01-03T21:15:52.459Z,97812.50
2023-01-03T21:17:56.192Z,97802.31
2023-01-03T21:20:01.336Z,97801.25
2023-01-03T21:22:17.875Z,97795.56
2023-01-03T21:24:23.802Z,97794.22
2023-01-03T21:26:26.827Z,97799.88
2023-01-03T21:28:29.608Z,97799.06
2023-01-03T21:30:32.830Z,97791.00
2023-01-03T21:32:35.553Z,97787.78
2023-01-03T21:34:38.477Z,97777.84
2023-01-03T21:36:41.023Z,97777.56
2023-01-03T21:38:43.685Z,97777.06
2023-01-03T21:40:49.137Z,97780.25
2023-01-03T21:43:03.748Z,97783.50
2023-01-03T21:45:12.823Z,97774.66
2023-01-03T21:47:15.448Z,97774.34
2023-01-03T21:49:18.140Z,97766.59
2023-01-03T21:51:33.470Z,97764.16
2023-01-03T21:53:40.987Z,97765.50
2023-01-03T21:55:43.826Z,97757.22
2023-01-03T21:57:46.831Z,97755.31
2023-01-03T21:59:50.473Z,97737.34
2023-01-03T22:02:12.024Z,97739.47
2023-01-03T22:04:17.777Z,97739.47
2023-01-03T22:06:20.382Z,97736.00
2023-01-03T22:08:23.073Z,97724.47
2023-01-03T22:10:25.745Z,97734.38
2023-01-03T22:12:28.407Z,97730.38
2023-01-03T22:14:31.209Z,97746.47
2023-01-03T22:16:34.081Z,97748.06
2023-01-03T22:18:37.163Z,97753.72
2023-01-03T22:20:39.783Z,97745.38
2023-01-03T22:22:43.584Z,97747.53
2023-01-03T22:24:46.346Z,97736.78
2023-01-03T22:26:49.726Z,97736.50
2023-01-03T22:28:52.327Z,97723.34
2023-01-03T22:30:54.982Z,97713.41
2023-01-03T22:32:58.328Z,97721.19
2023-01-03T22:35:00.926Z,97713.94
2023-01-03T22:37:05.140Z,97708.56
2023-01-03T22:39:07.847Z,97707.47
2023-01-03T22:41:17.245Z,97710.72
2023-01-03T22:43:19.905Z,97708.03
2023-01-03T22:45:22.547Z,97713.69
2023-01-03T22:47:25.490Z,97701.34
2023-01-03T22:49:28.330Z,97712.34
2023-01-03T22:51:30.927Z,97709.41
2023-01-03T22:53:38.596Z,97705.91
2023-01-03T22:55:42.604Z,97707.25
2023-01-03T22:57:45.193Z,97711.28
2023-01-03T22:59:47.841Z,97704.28
2023-01-03T23:01:50.634Z,97700.81
2023-01-03T23:03:55.010Z,97700.81
2023-01-03T23:05:58.371Z,97695.19
2023-01-03T23:08:00.980Z,97690.91
2023-01-03T23:10:04.252Z,97698.94
2023-01-03T23:12:26.091Z,97691.16
2023-01-03T23:14:28.775Z,97692.50
2023-01-03T23:16:32.536Z,97687.16
2023-01-03T23:18:35.232Z,97677.19
2023-01-03T23:20:49.184Z,97686.59
2023-01-03T23:22:57.594Z,97695.19
2023-01-03T23:25:02.310Z,97686.34
2023-01-03T23:27:05.738Z,97695.19
2023-01-03T23:29:10.033Z,97693.34
2023-01-03T23:31:12.888Z,97692.81
2023-01-03T23:33:16.267Z,97685.56
2023-01-03T23:35:18.903Z,97685.88
2023-01-03T23:37:21.528Z,97686.41
2023-01-03T23:39:24.164Z,97691.25
2023-01-03T23:41:26.790Z,97690.72
2023-01-03T23:43:29.334Z,97679.72
2023-01-03T23:45:31.924Z,97680.28
2023-01-03T23:47:34.748Z,97690.22
2023-01-03T23:49:37.302Z,97694.25
2023-01-03T23:51:39.898Z,97691.31
2023-01-03T23:53:44.018Z,97683.28
2023-01-03T23:55:46.689Z,97682.97
2023-01-03T23:57:49.346Z,97674.69
2023-01-03T23:59:52.034Z,97670.41
